Ridgeway, WV (25440)

10:49 AM EDT en Octubre 31, 2014 (GMT -0400)
Snowden Bridge | Change Station
CLOSE
Current Station
Estación meteorológica personal
Location: Stephenson, VA
Altura: 616 ft
Estaciones meteorológicas cercanas

Alt 616 ft 39.22 °N, 78.10 °W | Updated 1 minute ago

Nublado
Nublado
49.3 ° F
Sensación térmica 49 ° F
N
0.0
Viento Variable Viento desde ONO
Gusts 0.0 mph

Hoy
Alta -- | Baja -- ° F
--% Posibilidad de precipitaciones
Ayer
Alta -- | Baja -- ° F
Precip. -- pul
7:39 AM 6:12 PM
Cuarto creciente, 56% visible
Presión 30.00 pul
Visibilidad 10.0 Millas
Nubes Nublado 5500 ft
Vientos helados 49 ° F
Punto de rocío 42 ° F
Humedad 76%
Precipitaciones 0.00 pul
Espesor de la nieve No disponible.
UV 1 de una escala de 12
Polen .10 de una escala de 12
Calidad del aire No disponible.
Flu Activity No disponible.
METAR KMRB 311353Z 00000KT 10SM OVC055 07/03 A2999 RMK AO2 SLP158 T00720028

More Conditions Fewer Conditions

Presión 30.00 pul
Visibilidad 10.0 Millas
Nubes Nublado 5500 ft
Vientos helados 49 ° F
Punto de rocío 42 ° F
Humedad 76%
Precipitaciones 0.00 pul
Espesor de la nieve No disponible.
UV 1 de una escala de 12
Polen .10 de una escala de 12
Calidad del aire No disponible.
Flu Activity No disponible.
METAR KMRB 311353Z 00000KT 10SM OVC055 07/03 A2999 RMK AO2 SLP158 T00720028

More Conditions Fewer Conditions

10-Day Weather Forecast

Almanac

Astronomía

Oct. 31, 2014 Salida Puesta
Hora real
Crepúsculo civil
Crepúsculo náutico
Crepúsculo astronómico
Luna
Horas de luz
Horas de luz
Tomorrow will be .
, % of the Moon is Illuminated

Extremos de hoy

Máximos del estado Bajos del estado

Community

WunderPhotos

Upload Photos

1,766,625 ¡fotos cargadas!

WunderBlogs® & News

Nearby

Calidad del aire

  Calidad del aire Índice AQ Contaminante
Not available.

Grosos de nieve

Estación Profundido Altura

Actividad de terremotos

Ciudad Distance Mag. Tiempo y dato
Magnitud mínima muestra es 2,5.

Temperaturas de aguas costeras

Lugar Temperatura

Estaciones meteorológicas cercanas